Capitol Logistics 437


KCVG
Cincinnati/Northern Kentucky International Airport
Covington, Kentucky, US
KPHL
Philadelphia International Airport
Philadelphia, Pennsylvania, US

Activity Log

Date Flight Route Aircraft Duration
09/23/2019 CPX437 ROCKT9 AHTIY JST BOJID2 B738 1h 13m

Route Details

Aircraft Information
Primary: Boeing 737-800BCF
Backup: Not Available
Route Data
Distance: 462nm
Sched. Duration: 1h 44m
Avg. Duration: 1h 13m (-31m)
Times Flown: 1
Recm'd Route: ROCKT9 AHTIY JST BOJID2
Planned Altitude: 35,000ft
Origin Wx: KCVG 051352Z 34007KT 6SM HZ SCT045 BKN150 24/21 A2993 RMK AO2 SLP126 T02440206
Dest. Wx: KPHL 051354Z 25009KT 10SM SCT015 BKN038 BKN200 24/20 A2993 RMK AO2 SLP136 SCT V BKN T02390200
Notes:

Financial History
Total Freight: 36,960lbs
Average Load: 36,960lbs/flt
Fuel Used: 6,821lbs
Avg. Fuel Used: 6,821lbs/flt
Fuel Expense: $6,344
Avg. Fuel Expense: $6,344
Avg. Fuel Cost: $0.93/lbs
Total Gross Income: $46,939
Pilot Pay: $229
Total Expenses: $5,121
Total Revenue: $35,179
Average Revenue: $46,939.20